createdAt,value
2022-08-11T00:02:35.448Z,14.71
2022-08-11T00:05:54.436Z,14.73
2022-08-11T00:09:02.049Z,14.72
2022-08-11T00:12:17.590Z,14.71
2022-08-11T00:15:26.154Z,14.65
2022-08-11T00:18:41.555Z,14.61
2022-08-11T00:22:04.752Z,14.65
2022-08-11T00:25:15.744Z,14.53
2022-08-11T00:28:31.094Z,14.54
2022-08-11T00:31:40.916Z,14.54
2022-08-11T00:34:50.863Z,14.58
2022-08-11T00:38:02.944Z,14.62
2022-08-11T00:41:26.906Z,14.68
2022-08-11T00:44:50.961Z,14.76
2022-08-11T00:48:10.118Z,14.80
2022-08-11T00:52:04.760Z,14.85
2022-08-11T00:55:56.612Z,14.85
2022-08-11T00:59:44.149Z,14.79
2022-08-11T01:03:22.596Z,14.79
2022-08-11T01:06:56.104Z,14.73
2022-08-11T01:10:47.426Z,14.61
2022-08-11T01:14:53.335Z,14.62
2022-08-11T01:18:52.184Z,14.52
2022-08-11T01:22:57.695Z,14.43
2022-08-11T01:27:18.967Z,14.42
2022-08-11T01:31:41.114Z,14.43
2022-08-11T01:35:39.619Z,14.49
2022-08-11T01:39:25.551Z,14.49
2022-08-11T01:43:32.761Z,14.60
2022-08-11T01:46:55.386Z,14.53
2022-08-11T01:50:22.741Z,14.49
2022-08-11T01:53:48.653Z,14.39
2022-08-11T01:57:19.641Z,14.40
2022-08-11T02:00:34.425Z,14.42
2022-08-11T02:03:58.131Z,14.43
2022-08-11T02:07:22.639Z,14.49
2022-08-11T02:10:57.432Z,14.49
2022-08-11T02:14:22.651Z,14.47
2022-08-11T02:17:56.857Z,14.55
2022-08-11T02:21:33.808Z,14.69
2022-08-11T02:24:56.488Z,14.80
2022-08-11T02:28:21.829Z,14.85
2022-08-11T02:32:24.025Z,14.82
2022-08-11T02:35:43.008Z,14.83
2022-08-11T02:39:03.558Z,14.80
2022-08-11T02:42:42.316Z,14.81
2022-08-11T02:46:17.963Z,14.84
2022-08-11T02:50:02.575Z,14.90
2022-08-11T02:53:29.827Z,14.90
2022-08-11T02:56:57.717Z,14.96
2022-08-11T03:00:24.284Z,14.88
2022-08-11T03:03:41.324Z,14.77
2022-08-11T03:07:02.142Z,14.67
2022-08-11T03:10:26.688Z,14.57
2022-08-11T03:13:57.558Z,14.49
2022-08-11T03:17:29.813Z,14.32
2022-08-11T03:20:54.429Z,14.18
2022-08-11T03:24:11.767Z,14.08
2022-08-11T03:27:42.368Z,13.98
2022-08-11T03:31:00.291Z,13.83
2022-08-11T03:34:16.761Z,13.73
2022-08-11T03:37:54.743Z,13.64
2022-08-11T03:42:03.144Z,13.61
2022-08-11T03:45:26.778Z,13.55
2022-08-11T03:48:52.242Z,13.56
2022-08-11T03:52:19.676Z,13.55
2022-08-11T03:56:25.638Z,13.56
2022-08-11T04:00:21.796Z,13.49
2022-08-11T04:04:21.688Z,13.54
2022-08-11T04:08:21.090Z,13.55
2022-08-11T04:12:34.748Z,13.58
2022-08-11T04:16:32.319Z,13.53
2022-08-11T04:20:26.911Z,13.70
2022-08-11T04:24:35.280Z,13.90
2022-08-11T04:28:31.346Z,14.13
2022-08-11T04:31:54.928Z,14.59
2022-08-11T04:35:27.853Z,15.22
2022-08-11T04:39:20.522Z,15.68
2022-08-11T04:43:25.453Z,16.21
2022-08-11T04:47:00.099Z,16.48
2022-08-11T04:50:42.465Z,17.12
2022-08-11T04:54:47.192Z,17.67
2022-08-11T04:58:31.354Z,18.17
2022-08-11T05:02:16.898Z,18.78
2022-08-11T05:05:56.241Z,19.22
2022-08-11T05:09:41.288Z,19.16
2022-08-11T05:12:56.599Z,19.39
2022-08-11T05:16:29.401Z,19.97
2022-08-11T05:19:47.752Z,20.24
2022-08-11T05:23:23.519Z,20.17
2022-08-11T05:27:00.177Z,21.26
2022-08-11T05:30:22.090Z,22.22
2022-08-11T05:33:51.691Z,22.91
2022-08-11T05:37:25.605Z,22.49
2022-08-11T05:40:51.190Z,22.69
2022-08-11T05:44:19.666Z,22.78
2022-08-11T05:47:46.938Z,22.66
2022-08-11T05:51:16.622Z,23.09
2022-08-11T05:54:36.807Z,23.46
2022-08-11T05:57:51.683Z,23.42
2022-08-11T06:01:12.274Z,24.06
2022-08-11T06:04:26.335Z,24.46
2022-08-11T06:07:47.216Z,24.91
2022-08-11T06:10:56.380Z,24.96
2022-08-11T06:14:08.066Z,25.14
2022-08-11T06:17:17.405Z,25.30
2022-08-11T06:20:32.919Z,25.20
2022-08-11T06:23:49.339Z,25.79
2022-08-11T06:27:14.061Z,26.07
2022-08-11T06:30:23.698Z,25.41
2022-08-11T06:33:50.668Z,25.17
2022-08-11T06:37:21.901Z,24.66
2022-08-11T06:40:44.888Z,23.80
2022-08-11T06:44:05.120Z,24.26
2022-08-11T06:47:15.014Z,24.96
2022-08-11T06:50:39.154Z,25.23
2022-08-11T06:54:03.333Z,25.77
2022-08-11T06:57:31.027Z,26.19
2022-08-11T07:00:39.709Z,25.53
2022-08-11T07:03:51.516Z,25.25
2022-08-11T07:08:34.734Z,25.25
2022-08-11T07:12:30.056Z,24.49
2022-08-11T07:16:10.668Z,24.55
2022-08-11T07:19:29.849Z,24.94
2022-08-11T07:22:54.905Z,25.43
2022-08-11T07:26:18.713Z,26.07
2022-08-11T07:29:27.072Z,25.19
2022-08-11T07:32:40.284Z,25.04
2022-08-11T07:35:53.536Z,25.17
2022-08-11T07:39:03.956Z,24.82
2022-08-11T07:42:16.406Z,25.05
2022-08-11T07:45:41.795Z,24.88
2022-08-11T07:49:00.299Z,25.70
2022-08-11T07:52:19.670Z,26.21
2022-08-11T07:55:50.280Z,26.65
2022-08-11T07:59:10.852Z,26.46
2022-08-11T08:02:32.472Z,26.34
2022-08-11T08:05:52.664Z,26.80
2022-08-11T08:09:14.023Z,26.74
2022-08-11T08:12:39.165Z,26.45
2022-08-11T08:16:01.039Z,25.50
2022-08-11T08:19:07.348Z,26.86
2022-08-11T08:22:38.168Z,26.53
2022-08-11T08:25:46.216Z,26.27
2022-08-11T08:28:55.355Z,25.35
2022-08-11T08:31:59.427Z,25.48
2022-08-11T08:35:09.302Z,25.04
2022-08-11T08:38:17.007Z,23.93
2022-08-11T08:41:31.416Z,23.47
2022-08-11T08:44:48.130Z,23.51
2022-08-11T08:48:03.434Z,24.02
2022-08-11T08:51:33.614Z,24.44
2022-08-11T08:55:01.391Z,24.42
2022-08-11T08:58:07.756Z,24.21
2022-08-11T09:01:22.591Z,23.85
2022-08-11T09:04:31.497Z,23.32
2022-08-11T09:07:41.114Z,22.74
2022-08-11T09:11:13.915Z,22.37
2022-08-11T09:14:21.096Z,22.43
2022-08-11T09:17:32.056Z,22.84
2022-08-11T09:20:41.641Z,23.65
2022-08-11T09:24:11.447Z,23.56
2022-08-11T09:27:24.967Z,23.04
2022-08-11T09:30:32.664Z,23.16
2022-08-11T09:33:47.219Z,22.31
2022-08-11T09:37:09.930Z,22.60
2022-08-11T09:40:33.926Z,23.28
2022-08-11T09:44:04.015Z,24.01
2022-08-11T09:47:15.710Z,24.28
2022-08-11T09:50:26.850Z,23.73
2022-08-11T09:53:40.869Z,22.54
2022-08-11T09:57:08.062Z,21.96
2022-08-11T10:00:18.709Z,21.73
2022-08-11T10:03:28.511Z,21.47
2022-08-11T10:06:55.499Z,21.92
2022-08-11T10:10:06.773Z,21.94
2022-08-11T10:14:30.248Z,22.43
2022-08-11T10:16:44.157Z,21.99
2022-08-11T10:20:04.756Z,22.21
2022-08-11T10:23:29.649Z,22.08
2022-08-11T10:26:49.611Z,22.90
2022-08-11T10:30:09.109Z,23.37
2022-08-11T10:33:37.590Z,23.07
2022-08-11T10:36:48.793Z,22.66
2022-08-11T10:39:59.843Z,22.63
2022-08-11T10:43:07.324Z,22.50
2022-08-11T10:46:29.897Z,23.23
2022-08-11T10:49:37.188Z,23.44
2022-08-11T10:52:57.373Z,23.00
2022-08-11T10:56:20.418Z,22.98
2022-08-11T10:59:31.080Z,23.04
2022-08-11T11:02:38.707Z,23.04
2022-08-11T11:06:12.726Z,23.27
2022-08-11T11:09:22.414Z,23.24
2022-08-11T11:12:53.905Z,23.32
2022-08-11T11:16:12.378Z,23.01
2022-08-11T11:19:26.475Z,23.41
2022-08-11T11:22:41.666Z,23.79
2022-08-11T11:26:27.061Z,24.02
2022-08-11T11:30:02.958Z,23.68
2022-08-11T11:33:23.382Z,23.34
2022-08-11T11:36:47.943Z,23.13
2022-08-11T11:39:57.727Z,23.37
2022-08-11T11:43:05.399Z,23.09
2022-08-11T11:46:14.170Z,23.36
2022-08-11T11:49:25.403Z,24.28
2022-08-11T11:52:32.727Z,24.55
2022-08-11T11:55:40.337Z,24.92
2022-08-11T11:58:59.951Z,24.80
2022-08-11T12:02:11.939Z,25.51
2022-08-11T12:05:18.817Z,25.64
2022-08-11T12:08:28.653Z,26.61
2022-08-11T12:11:50.756Z,27.19
2022-08-11T12:14:58.698Z,26.60
2022-08-11T12:18:08.974Z,26.33
2022-08-11T12:21:19.019Z,26.17
2022-08-11T12:24:38.596Z,25.51
2022-08-11T12:27:45.075Z,25.11
2022-08-11T12:30:54.220Z,24.36
2022-08-11T12:34:09.016Z,23.86
2022-08-11T12:37:19.461Z,23.75
2022-08-11T12:41:12.121Z,23.95
2022-08-11T12:44:26.450Z,24.67
2022-08-11T12:48:13.986Z,24.31
2022-08-11T12:52:12.417Z,24.35
2022-08-11T12:55:41.034Z,24.09
2022-08-11T12:58:52.091Z,23.47
2022-08-11T13:02:11.142Z,23.17
2022-08-11T13:05:19.591Z,23.14
2022-08-11T13:08:32.368Z,23.59
2022-08-11T13:11:56.065Z,23.94
2022-08-11T13:15:06.065Z,24.17
2022-08-11T13:18:13.898Z,24.09
2022-08-11T13:21:21.660Z,23.93
2022-08-11T13:24:34.262Z,23.85
2022-08-11T13:27:40.387Z,23.94
2022-08-11T13:30:59.397Z,23.41
2022-08-11T13:34:09.085Z,23.53
2022-08-11T13:37:19.517Z,23.56
2022-08-11T13:40:56.020Z,23.84
2022-08-11T13:44:03.835Z,23.39
2022-08-11T13:47:16.198Z,23.62
2022-08-11T13:50:22.298Z,23.39
2022-08-11T13:53:32.885Z,23.69
2022-08-11T13:56:46.998Z,23.86
2022-08-11T14:00:13.194Z,23.80
2022-08-11T14:04:30.270Z,24.21
2022-08-11T14:07:01.632Z,23.97
2022-08-11T14:10:12.894Z,23.61
2022-08-11T14:13:42.730Z,22.90
2022-08-11T14:17:00.487Z,20.70
2022-08-11T14:20:35.497Z,20.19
2022-08-11T14:23:45.182Z,19.63
2022-08-11T14:26:59.045Z,19.31
2022-08-11T14:30:30.003Z,18.97
2022-08-11T14:34:00.446Z,18.29
2022-08-11T14:37:11.307Z,17.79
2022-08-11T14:40:48.016Z,17.24
2022-08-11T14:44:14.868Z,16.59
2022-08-11T14:47:26.402Z,16.22
2022-08-11T14:50:36.737Z,16.08
2022-08-11T14:53:58.564Z,15.64
2022-08-11T14:57:03.550Z,15.35
2022-08-11T15:00:16.517Z,15.35
2022-08-11T15:03:28.717Z,15.16
2022-08-11T15:06:36.114Z,15.30
2022-08-11T15:13:11.294Z,14.97
2022-08-11T15:16:29.337Z,15.08
2022-08-11T15:20:02.241Z,15.23
2022-08-11T15:23:33.981Z,15.08
2022-08-11T15:26:57.410Z,14.84
2022-08-11T15:30:35.921Z,15.08
2022-08-11T15:34:04.880Z,15.45
2022-08-11T15:37:34.047Z,15.57
2022-08-11T15:40:57.455Z,15.63
2022-08-11T15:44:58.779Z,15.74
2022-08-11T15:48:06.266Z,15.65
2022-08-11T15:51:29.653Z,15.77
2022-08-11T15:54:46.591Z,15.80
2022-08-11T15:58:15.643Z,15.98
2022-08-11T16:01:46.118Z,16.16
2022-08-11T16:04:54.656Z,16.23
2022-08-11T16:08:02.789Z,16.42
2022-08-11T16:11:28.373Z,16.72
2022-08-11T16:15:00.157Z,16.75
2022-08-11T16:18:24.480Z,16.86
2022-08-11T16:21:43.174Z,17.23
2022-08-11T16:27:02.078Z,17.23
2022-08-11T16:28:41.492Z,17.24
2022-08-11T16:32:10.560Z,17.22
2022-08-11T16:35:35.111Z,17.32
2022-08-11T16:38:44.272Z,17.52
2022-08-11T16:42:05.411Z,17.59
2022-08-11T16:45:26.848Z,17.57
2022-08-11T16:48:39.563Z,17.59
2022-08-11T16:51:45.939Z,17.23
2022-08-11T16:54:52.694Z,17.40
2022-08-11T16:58:12.660Z,17.56
2022-08-11T17:01:25.844Z,17.41
2022-08-11T17:04:53.932Z,17.52
2022-08-11T17:08:25.023Z,17.58
2022-08-11T17:11:56.516Z,17.72
2022-08-11T17:15:29.319Z,17.63
2022-08-11T17:18:48.698Z,17.48
2022-08-11T17:22:09.548Z,17.49
2022-08-11T17:25:25.156Z,17.45
2022-08-11T17:28:34.673Z,17.36
2022-08-11T17:31:53.149Z,17.30
2022-08-11T17:35:31.691Z,17.24
2022-08-11T17:38:43.077Z,17.16
2022-08-11T17:42:02.167Z,17.13
2022-08-11T17:45:24.354Z,17.19
2022-08-11T17:48:35.072Z,17.23
2022-08-11T17:52:01.112Z,17.12
2022-08-11T17:55:52.452Z,17.28
2022-08-11T17:59:14.606Z,17.23
2022-08-11T18:02:44.690Z,17.18
2022-08-11T18:05:52.352Z,17.20
2022-08-11T18:09:16.633Z,17.10
2022-08-11T18:12:34.795Z,17.04
2022-08-11T18:15:56.617Z,16.96
2022-08-11T18:19:15.792Z,16.96
2022-08-11T18:22:48.696Z,16.79
2022-08-11T18:26:20.985Z,16.62
2022-08-11T18:29:44.458Z,16.59
2022-08-11T18:33:45.236Z,16.48
2022-08-11T18:36:55.905Z,16.37
2022-08-11T18:40:29.873Z,16.31
2022-08-11T18:44:05.111Z,16.21
2022-08-11T18:47:34.130Z,16.21
2022-08-11T18:51:31.466Z,16.18
2022-08-11T18:55:06.234Z,16.21
2022-08-11T18:58:40.367Z,16.24
2022-08-11T19:02:03.893Z,16.14
2022-08-11T19:06:06.154Z,16.14
2022-08-11T19:09:18.777Z,16.01
2022-08-11T19:12:46.219Z,15.94
2022-08-11T19:16:06.102Z,15.88
2022-08-11T19:19:31.214Z,15.79
2022-08-11T19:22:55.009Z,15.73
2022-08-11T19:26:17.103Z,15.78
2022-08-11T19:30:07.385Z,15.67
2022-08-11T19:34:00.266Z,15.65
2022-08-11T19:37:23.551Z,15.58
2022-08-11T19:41:18.454Z,15.38
2022-08-11T19:44:59.676Z,15.26
2022-08-11T19:48:32.149Z,15.13
2022-08-11T19:51:54.500Z,15.10
2022-08-11T19:55:33.040Z,15.02
2022-08-11T19:58:54.900Z,14.99
2022-08-11T20:02:14.709Z,14.87
2022-08-11T20:05:39.822Z,14.89
2022-08-11T20:09:17.632Z,14.75
2022-08-11T20:12:44.202Z,14.72
2022-08-11T20:16:03.791Z,14.70
2022-08-11T20:19:56.644Z,14.67
2022-08-11T20:23:23.759Z,14.56
2022-08-11T20:26:48.341Z,14.60
2022-08-11T20:30:19.818Z,14.48
2022-08-11T20:33:43.370Z,14.38
2022-08-11T20:37:07.298Z,14.39
2022-08-11T20:40:29.223Z,14.23
2022-08-11T20:44:07.573Z,14.17
2022-08-11T20:47:32.696Z,14.16
2022-08-11T20:51:23.058Z,14.13
2022-08-11T20:54:51.800Z,14.09
2022-08-11T20:58:47.948Z,14.02
2022-08-11T21:02:09.631Z,14.04
2022-08-11T21:06:08.934Z,14.03
2022-08-11T21:09:23.840Z,13.97
2022-08-11T21:12:50.810Z,13.89
2022-08-11T21:16:25.201Z,13.88
2022-08-11T21:20:00.033Z,13.86
2022-08-11T21:23:30.892Z,13.85
2022-08-11T21:27:01.540Z,13.69
2022-08-11T21:30:24.011Z,13.77
2022-08-11T21:33:47.249Z,13.78
2022-08-11T21:37:08.403Z,13.74
2022-08-11T21:40:34.460Z,13.67
2022-08-11T21:43:57.765Z,13.66
2022-08-11T21:47:42.419Z,13.66
2022-08-11T21:50:57.813Z,13.63
2022-08-11T21:54:17.766Z,13.61
2022-08-11T21:57:48.029Z,13.51
2022-08-11T22:01:09.973Z,13.44
2022-08-11T22:04:29.987Z,13.40
2022-08-11T22:07:48.800Z,13.42
2022-08-11T22:11:07.476Z,13.31
2022-08-11T22:14:28.945Z,13.32
2022-08-11T22:17:46.990Z,13.25
2022-08-11T22:21:07.574Z,13.26
2022-08-11T22:24:30.257Z,13.21
2022-08-11T22:27:49.379Z,13.21
2022-08-11T22:31:13.536Z,13.18
2022-08-11T22:34:34.084Z,13.15
2022-08-11T22:38:01.778Z,13.12
2022-08-11T22:41:20.119Z,13.12
2022-08-11T22:44:38.206Z,13.10
2022-08-11T22:48:02.956Z,13.08
2022-08-11T22:51:22.136Z,13.08
2022-08-11T22:54:41.993Z,13.09
2022-08-11T22:58:02.981Z,13.04
2022-08-11T23:01:22.118Z,13.03
2022-08-11T23:04:45.637Z,13.04
2022-08-11T23:08:13.796Z,13.07
2022-08-11T23:12:02.469Z,12.96
2022-08-11T23:15:12.675Z,12.88
2022-08-11T23:18:32.279Z,12.89
2022-08-11T23:21:57.609Z,12.86
2022-08-11T23:25:17.873Z,12.80
2022-08-11T23:28:39.584Z,12.84
2022-08-11T23:31:59.524Z,12.80
2022-08-11T23:35:39.186Z,12.74
2022-08-11T23:39:01.550Z,12.67
2022-08-11T23:42:24.948Z,12.64
2022-08-11T23:45:43.204Z,12.71
2022-08-11T23:49:14.880Z,12.64
2022-08-11T23:52:52.459Z,12.58
2022-08-11T23:56:13.753Z,12.45
2022-08-11T23:59:39.865Z,12.45
